sensor_id;sensor_type;location;lat;lon;timestamp;P1;durP1;ratioP1;P2;durP2;ratioP2
64022;SDS011;50264;52.088;5.296;2023-02-28T00:01:10;4.41;;;2.6;;
64022;SDS011;50264;52.088;5.296;2023-02-28T00:02:46;3.1;;;2.4;;
64022;SDS011;50264;52.088;5.296;2023-02-28T00:06:00;4.41;;;2.5;;
64022;SDS011;50264;52.088;5.296;2023-02-28T00:07:37;3.2;;;2.6;;
64022;SDS011;50264;52.088;5.296;2023-02-28T00:09:14;6.1;;;2.9;;
64022;SDS011;50264;52.088;5.296;2023-02-28T00:12:26;4.7;;;2.4;;
64022;SDS011;50264;52.088;5.296;2023-02-28T00:14:02;2.7;;;2.1;;
64022;SDS011;50264;52.088;5.296;2023-02-28T00:15:38;3.2;;;2.4;;
64022;SDS011;50264;52.088;5.296;2023-02-28T00:18:51;2.4;;;2.21;;
64022;SDS011;50264;52.088;5.296;2023-02-28T00:20:27;3.3;;;2.6;;
64022;SDS011;50264;52.088;5.296;2023-02-28T00:22:03;3.9;;;2.7;;
64022;SDS011;50264;52.088;5.296;2023-02-28T00:23:39;3.0;;;2.21;;
64022;SDS011;50264;52.088;5.296;2023-02-28T00:26:55;4.1;;;2.21;;
64022;SDS011;50264;52.088;5.296;2023-02-28T00:30:09;3.1;;;2.6;;
64022;SDS011;50264;52.088;5.296;2023-02-28T00:33:27;4.3;;;2.7;;
64022;SDS011;50264;52.088;5.296;2023-02-28T00:35:05;3.0;;;2.4;;
64022;SDS011;50264;52.088;5.296;2023-02-28T00:36:42;7.9;;;2.9;;
64022;SDS011;50264;52.088;5.296;2023-02-28T00:38:19;3.0;;;2.31;;
64022;SDS011;50264;52.088;5.296;2023-02-28T00:41:32;3.2;;;2.21;;
64022;SDS011;50264;52.088;5.296;2023-02-28T00:43:08;6.9;;;2.6;;
64022;SDS011;50264;52.088;5.296;2023-02-28T00:44:44;3.2;;;2.4;;
64022;SDS011;50264;52.088;5.296;2023-02-28T00:47:56;3.9;;;2.21;;
64022;SDS011;50264;52.088;5.296;2023-02-28T00:49:32;3.4;;;2.5;;
64022;SDS011;50264;52.088;5.296;2023-02-28T00:51:09;4.5;;;2.4;;
64022;SDS011;50264;52.088;5.296;2023-02-28T00:54:22;3.2;;;2.21;;
64022;SDS011;50264;52.088;5.296;2023-02-28T00:55:59;2.7;;;2.21;;
64022;SDS011;50264;52.088;5.296;2023-02-28T00:57:35;3.3;;;2.4;;
64022;SDS011;50264;52.088;5.296;2023-02-28T00:59:11;3.8;;;2.7;;
64022;SDS011;50264;52.088;5.296;2023-02-28T01:02:26;4.41;;;2.4;;
64022;SDS011;50264;52.088;5.296;2023-02-28T01:04:02;5.3;;;2.8;;
64022;SDS011;50264;52.088;5.296;2023-02-28T01:05:38;5.0;;;2.5;;
64022;SDS011;50264;52.088;5.296;2023-02-28T01:08:50;2.9;;;2.31;;
64022;SDS011;50264;52.088;5.296;2023-02-28T01:10:27;4.0;;;2.1;;
64022;SDS011;50264;52.088;5.296;2023-02-28T01:12:04;3.2;;;2.21;;
64022;SDS011;50264;52.088;5.296;2023-02-28T01:15:17;2.5;;;1.7;;
64022;SDS011;50264;52.088;5.296;2023-02-28T01:16:53;4.3;;;2.31;;
64022;SDS011;50264;52.088;5.296;2023-02-28T01:18:29;3.0;;;1.9;;
64022;SDS011;50264;52.088;5.296;2023-02-28T01:20:06;4.61;;;2.4;;
64022;SDS011;50264;52.088;5.296;2023-02-28T01:23:18;6.6;;;2.7;;
64022;SDS011;50264;52.088;5.296;2023-02-28T01:24:55;3.6;;;2.31;;
64022;SDS011;50264;52.088;5.296;2023-02-28T01:26:32;4.7;;;2.7;;
64022;SDS011;50264;52.088;5.296;2023-02-28T01:29:44;5.7;;;2.6;;
64022;SDS011;50264;52.088;5.296;2023-02-28T01:31:20;3.8;;;2.4;;
64022;SDS011;50264;52.088;5.296;2023-02-28T01:32:58;4.8;;;2.6;;
64022;SDS011;50264;52.088;5.296;2023-02-28T01:36:12;5.2;;;2.31;;
64022;SDS011;50264;52.088;5.296;2023-02-28T01:37:51;3.7;;;2.5;;
64022;SDS011;50264;52.088;5.296;2023-02-28T01:39:27;4.1;;;2.6;;
64022;SDS011;50264;52.088;5.296;2023-02-28T01:41:03;3.2;;;2.5;;
64022;SDS011;50264;52.088;5.296;2023-02-28T01:45:22;4.41;;;2.8;;
64022;SDS011;50264;52.088;5.296;2023-02-28T01:47:01;6.4;;;2.6;;
64022;SDS011;50264;52.088;5.296;2023-02-28T01:48:38;3.0;;;2.6;;
64022;SDS011;50264;52.088;5.296;2023-02-28T01:50:19;3.7;;;2.8;;
64022;SDS011;50264;52.088;5.296;2023-02-28T01:51:58;5.0;;;2.7;;
64022;SDS011;50264;52.088;5.296;2023-02-28T01:53:35;3.6;;;2.7;;
64022;SDS011;50264;52.088;5.296;2023-02-28T01:56:58;4.7;;;3.4;;
64022;SDS011;50264;52.088;5.296;2023-02-28T01:58:40;3.7;;;2.6;;
64022;SDS011;50264;52.088;5.296;2023-02-28T02:00:17;5.7;;;2.5;;
64022;SDS011;50264;52.088;5.296;2023-02-28T02:01:59;8.31;;;3.0;;
64022;SDS011;50264;52.088;5.296;2023-02-28T02:05:14;3.6;;;2.5;;
64022;SDS011;50264;52.088;5.296;2023-02-28T02:06:53;3.6;;;2.5;;
64022;SDS011;50264;52.088;5.296;2023-02-28T02:08:30;2.31;;;2.1;;
64022;SDS011;50264;52.088;5.296;2023-02-28T02:11:51;4.1;;;2.7;;
64022;SDS011;50264;52.088;5.296;2023-02-28T02:13:34;3.3;;;3.0;;
64022;SDS011;50264;52.088;5.296;2023-02-28T02:15:29;4.5;;;2.9;;
64022;SDS011;50264;52.088;5.296;2023-02-28T02:17:14;4.2;;;3.1;;
64022;SDS011;50264;52.088;5.296;2023-02-28T02:19:02;4.61;;;2.6;;
64022;SDS011;50264;52.088;5.296;2023-02-28T02:21:36;5.11;;;2.9;;
64022;SDS011;50264;52.088;5.296;2023-02-28T02:27:14;4.7;;;2.7;;
64022;SDS011;50264;52.088;5.296;2023-02-28T02:29:49;4.5;;;3.0;;
64022;SDS011;50264;52.088;5.296;2023-02-28T02:33:09;5.5;;;2.9;;
64022;SDS011;50264;52.088;5.296;2023-02-28T02:35:27;4.3;;;3.0;;
64022;SDS011;50264;52.088;5.296;2023-02-28T02:38:56;5.11;;;3.1;;
64022;SDS011;50264;52.088;5.296;2023-02-28T02:40:43;6.0;;;3.1;;
64022;SDS011;50264;52.088;5.296;2023-02-28T02:42:31;5.7;;;3.5;;
64022;SDS011;50264;52.088;5.296;2023-02-28T02:44:17;6.9;;;3.5;;
64022;SDS011;50264;52.088;5.296;2023-02-28T02:45:58;5.5;;;3.3;;
64022;SDS011;50264;52.088;5.296;2023-02-28T02:49:19;6.5;;;3.4;;
64022;SDS011;50264;52.088;5.296;2023-02-28T02:51:00;4.8;;;3.2;;
64022;SDS011;50264;52.088;5.296;2023-02-28T02:52:42;7.1;;;3.9;;
64022;SDS011;50264;52.088;5.296;2023-02-28T02:54:32;7.1;;;3.6;;
64022;SDS011;50264;52.088;5.296;2023-02-28T02:57:51;6.6;;;3.4;;
64022;SDS011;50264;52.088;5.296;2023-02-28T02:59:33;5.8;;;3.6;;
64022;SDS011;50264;52.088;5.296;2023-02-28T03:01:14;4.5;;;3.2;;
64022;SDS011;50264;52.088;5.296;2023-02-28T03:02:54;5.6;;;3.6;;
64022;SDS011;50264;52.088;5.296;2023-02-28T03:06:17;4.41;;;3.4;;
64022;SDS011;50264;52.088;5.296;2023-02-28T03:07:54;5.9;;;3.3;;
64022;SDS011;50264;52.088;5.296;2023-02-28T03:09:32;7.3;;;4.0;;
64022;SDS011;50264;52.088;5.296;2023-02-28T03:11:11;5.3;;;3.2;;
64022;SDS011;50264;52.088;5.296;2023-02-28T03:14:43;6.1;;;2.4;;
64022;SDS011;50264;52.088;5.296;2023-02-28T03:16:33;5.11;;;2.8;;
64022;SDS011;50264;52.088;5.296;2023-02-28T03:18:17;3.9;;;3.0;;
64022;SDS011;50264;52.088;5.296;2023-02-28T03:20:04;7.7;;;3.3;;
64022;SDS011;50264;52.088;5.296;2023-02-28T03:21:53;6.5;;;3.5;;
64022;SDS011;50264;52.088;5.296;2023-02-28T03:23:42;8.1;;;3.8;;
64022;SDS011;50264;52.088;5.296;2023-02-28T03:27:12;5.5;;;3.3;;
64022;SDS011;50264;52.088;5.296;2023-02-28T03:28:59;5.8;;;3.0;;
64022;SDS011;50264;52.088;5.296;2023-02-28T03:30:42;6.2;;;3.0;;
64022;SDS011;50264;52.088;5.296;2023-02-28T03:32:25;5.0;;;3.4;;
64022;SDS011;50264;52.088;5.296;2023-02-28T03:34:10;5.11;;;2.8;;
64022;SDS011;50264;52.088;5.296;2023-02-28T03:37:35;5.6;;;2.9;;
64022;SDS011;50264;52.088;5.296;2023-02-28T03:39:17;5.8;;;3.2;;
64022;SDS011;50264;52.088;5.296;2023-02-28T03:40:58;4.41;;;2.9;;
64022;SDS011;50264;52.088;5.296;2023-02-28T03:42:41;5.6;;;2.9;;
64022;SDS011;50264;52.088;5.296;2023-02-28T03:46:06;6.8;;;3.4;;
64022;SDS011;50264;52.088;5.296;2023-02-28T03:47:46;4.91;;;3.2;;
64022;SDS011;50264;52.088;5.296;2023-02-28T03:49:30;3.6;;;3.0;;
64022;SDS011;50264;52.088;5.296;2023-02-28T03:51:10;6.1;;;3.2;;
64022;SDS011;50264;52.088;5.296;2023-02-28T03:52:52;4.2;;;3.4;;
64022;SDS011;50264;52.088;5.296;2023-02-28T03:56:22;8.31;;;3.0;;
64022;SDS011;50264;52.088;5.296;2023-02-28T03:58:04;4.8;;;3.7;;
64022;SDS011;50264;52.088;5.296;2023-02-28T03:59:52;7.5;;;3.0;;
64022;SDS011;50264;52.088;5.296;2023-02-28T04:01:35;5.5;;;3.4;;
64022;SDS011;50264;52.088;5.296;2023-02-28T04:03:16;8.9;;;3.5;;
64022;SDS011;50264;52.088;5.296;2023-02-28T04:06:29;6.5;;;3.8;;
64022;SDS011;50264;52.088;5.296;2023-02-28T04:08:08;5.2;;;3.1;;
64022;SDS011;50264;52.088;5.296;2023-02-28T04:09:44;4.3;;;3.5;;
64022;SDS011;50264;52.088;5.296;2023-02-28T04:13:02;4.7;;;3.4;;
64022;SDS011;50264;52.088;5.296;2023-02-28T04:14:38;3.7;;;3.4;;
64022;SDS011;50264;52.088;5.296;2023-02-28T04:16:14;5.4;;;3.6;;
64022;SDS011;50264;52.088;5.296;2023-02-28T04:19:28;4.8;;;3.3;;
64022;SDS011;50264;52.088;5.296;2023-02-28T04:21:04;7.3;;;3.4;;
64022;SDS011;50264;52.088;5.296;2023-02-28T04:22:41;4.91;;;3.5;;
64022;SDS011;50264;52.088;5.296;2023-02-28T04:24:18;10.0;;;3.9;;
64022;SDS011;50264;52.088;5.296;2023-02-28T04:27:32;5.3;;;3.9;;
64022;SDS011;50264;52.088;5.296;2023-02-28T04:29:10;6.3;;;3.7;;
64022;SDS011;50264;52.088;5.296;2023-02-28T04:30:53;5.0;;;3.6;;
64022;SDS011;50264;52.088;5.296;2023-02-28T04:34:07;6.5;;;3.8;;
64022;SDS011;50264;52.088;5.296;2023-02-28T04:35:43;5.8;;;3.8;;
64022;SDS011;50264;52.088;5.296;2023-02-28T04:37:19;7.0;;;3.7;;
64022;SDS011;50264;52.088;5.296;2023-02-28T04:38:55;6.3;;;4.1;;
64022;SDS011;50264;52.088;5.296;2023-02-28T04:42:09;3.4;;;3.1;;
64022;SDS011;50264;52.088;5.296;2023-02-28T04:43:46;4.61;;;3.5;;
64022;SDS011;50264;52.088;5.296;2023-02-28T04:45:22;8.2;;;4.0;;
64022;SDS011;50264;52.088;5.296;2023-02-28T04:48:35;4.8;;;3.7;;
64022;SDS011;50264;52.088;5.296;2023-02-28T04:50:13;6.5;;;4.0;;
64022;SDS011;50264;52.088;5.296;2023-02-28T04:51:49;6.6;;;4.2;;
64022;SDS011;50264;52.088;5.296;2023-02-28T04:55:04;5.0;;;3.6;;
64022;SDS011;50264;52.088;5.296;2023-02-28T04:56:41;6.5;;;3.6;;
64022;SDS011;50264;52.088;5.296;2023-02-28T04:58:18;6.5;;;3.9;;
64022;SDS011;50264;52.088;5.296;2023-02-28T04:59:54;4.2;;;3.5;;
64022;SDS011;50264;52.088;5.296;2023-02-28T05:03:08;3.4;;;3.0;;
64022;SDS011;50264;52.088;5.296;2023-02-28T05:04:44;5.0;;;3.7;;
64022;SDS011;50264;52.088;5.296;2023-02-28T05:06:21;7.1;;;3.6;;
64022;SDS011;50264;52.088;5.296;2023-02-28T05:09:35;7.9;;;3.9;;
64022;SDS011;50264;52.088;5.296;2023-02-28T05:11:14;4.41;;;3.5;;
64022;SDS011;50264;52.088;5.296;2023-02-28T05:12:52;5.3;;;3.7;;
64022;SDS011;50264;52.088;5.296;2023-02-28T05:14:28;6.6;;;4.2;;
64022;SDS011;50264;52.088;5.296;2023-02-28T05:17:42;8.2;;;3.9;;
64022;SDS011;50264;52.088;5.296;2023-02-28T05:19:19;5.8;;;3.6;;
64022;SDS011;50264;52.088;5.296;2023-02-28T05:20:55;4.41;;;3.3;;
64022;SDS011;50264;52.088;5.296;2023-02-28T05:24:09;10.21;;;3.7;;
64022;SDS011;50264;52.088;5.296;2023-02-28T05:25:47;4.7;;;3.4;;
64022;SDS011;50264;52.088;5.296;2023-02-28T05:27:23;4.8;;;3.7;;
64022;SDS011;50264;52.088;5.296;2023-02-28T05:30:36;5.2;;;3.8;;
64022;SDS011;50264;52.088;5.296;2023-02-28T05:32:12;5.3;;;4.0;;
64022;SDS011;50264;52.088;5.296;2023-02-28T05:33:49;4.41;;;4.0;;
64022;SDS011;50264;52.088;5.296;2023-02-28T05:35:26;6.8;;;4.3;;
64022;SDS011;50264;52.088;5.296;2023-02-28T05:38:38;11.4;;;4.41;;
64022;SDS011;50264;52.088;5.296;2023-02-28T05:40:15;4.5;;;4.1;;
64022;SDS011;50264;52.088;5.296;2023-02-28T05:41:52;7.6;;;4.3;;
64022;SDS011;50264;52.088;5.296;2023-02-28T05:45:04;5.5;;;4.1;;
64022;SDS011;50264;52.088;5.296;2023-02-28T05:46:41;5.0;;;3.7;;
64022;SDS011;50264;52.088;5.296;2023-02-28T05:48:17;9.9;;;4.3;;
64022;SDS011;50264;52.088;5.296;2023-02-28T05:51:29;4.8;;;4.2;;
64022;SDS011;50264;52.088;5.296;2023-02-28T05:54:42;4.3;;;3.9;;
64022;SDS011;50264;52.088;5.296;2023-02-28T05:56:18;4.91;;;4.41;;
64022;SDS011;50264;52.088;5.296;2023-02-28T05:59:30;5.5;;;4.0;;
64022;SDS011;50264;52.088;5.296;2023-02-28T06:01:30;6.9;;;4.2;;
64022;SDS011;50264;52.088;5.296;2023-02-28T06:03:08;5.2;;;4.5;;
64022;SDS011;50264;52.088;5.296;2023-02-28T06:04:45;5.8;;;4.8;;
64022;SDS011;50264;52.088;5.296;2023-02-28T06:07:58;6.4;;;4.5;;
64022;SDS011;50264;52.088;5.296;2023-02-28T06:09:34;6.6;;;4.5;;
64022;SDS011;50264;52.088;5.296;2023-02-28T06:11:11;5.0;;;4.5;;
64022;SDS011;50264;52.088;5.296;2023-02-28T06:14:24;7.1;;;5.3;;
64022;SDS011;50264;52.088;5.296;2023-02-28T06:16:00;8.81;;;5.2;;
64022;SDS011;50264;52.088;5.296;2023-02-28T06:17:37;6.4;;;4.8;;
64022;SDS011;50264;52.088;5.296;2023-02-28T06:20:51;7.2;;;4.7;;
64022;SDS011;50264;52.088;5.296;2023-02-28T06:22:28;8.71;;;5.4;;
64022;SDS011;50264;52.088;5.296;2023-02-28T06:24:05;6.5;;;5.4;;
64022;SDS011;50264;52.088;5.296;2023-02-28T06:25:44;6.5;;;5.3;;
64022;SDS011;50264;52.088;5.296;2023-02-28T06:28:57;7.6;;;4.8;;
64022;SDS011;50264;52.088;5.296;2023-02-28T06:30:33;5.9;;;5.2;;
64022;SDS011;50264;52.088;5.296;2023-02-28T06:32:09;7.6;;;5.7;;
64022;SDS011;50264;52.088;5.296;2023-02-28T06:35:22;9.9;;;5.11;;
64022;SDS011;50264;52.088;5.296;2023-02-28T06:36:58;8.5;;;5.4;;
64022;SDS011;50264;52.088;5.296;2023-02-28T06:38:36;6.9;;;5.4;;
64022;SDS011;50264;52.088;5.296;2023-02-28T06:40:14;10.6;;;5.8;;
64022;SDS011;50264;52.088;5.296;2023-02-28T06:43:28;9.1;;;5.6;;
64022;SDS011;50264;52.088;5.296;2023-02-28T06:45:05;7.2;;;5.9;;
64022;SDS011;50264;52.088;5.296;2023-02-28T06:46:43;8.6;;;6.1;;
64022;SDS011;50264;52.088;5.296;2023-02-28T06:49:56;8.4;;;5.9;;
64022;SDS011;50264;52.088;5.296;2023-02-28T06:51:33;6.6;;;6.0;;
64022;SDS011;50264;52.088;5.296;2023-02-28T06:53:09;7.2;;;5.6;;
64022;SDS011;50264;52.088;5.296;2023-02-28T06:56:21;8.1;;;5.5;;
64022;SDS011;50264;52.088;5.296;2023-02-28T06:57:57;6.7;;;6.0;;
64022;SDS011;50264;52.088;5.296;2023-02-28T06:59:34;7.7;;;5.5;;
64022;SDS011;50264;52.088;5.296;2023-02-28T07:01:10;7.1;;;6.1;;
64022;SDS011;50264;52.088;5.296;2023-02-28T07:04:25;7.3;;;5.9;;
64022;SDS011;50264;52.088;5.296;2023-02-28T07:06:01;7.1;;;5.4;;
64022;SDS011;50264;52.088;5.296;2023-02-28T07:07:38;7.2;;;5.8;;
64022;SDS011;50264;52.088;5.296;2023-02-28T07:10:52;7.0;;;6.1;;
64022;SDS011;50264;52.088;5.296;2023-02-28T07:12:28;7.0;;;5.7;;
64022;SDS011;50264;52.088;5.296;2023-02-28T07:14:05;6.7;;;5.3;;
64022;SDS011;50264;52.088;5.296;2023-02-28T07:17:17;7.0;;;5.5;;
64022;SDS011;50264;52.088;5.296;2023-02-28T07:18:53;6.7;;;5.8;;
64022;SDS011;50264;52.088;5.296;2023-02-28T07:20:29;7.7;;;5.4;;
64022;SDS011;50264;52.088;5.296;2023-02-28T07:22:07;6.6;;;5.4;;
64022;SDS011;50264;52.088;5.296;2023-02-28T07:25:20;6.9;;;5.11;;
64022;SDS011;50264;52.088;5.296;2023-02-28T07:28:33;6.1;;;4.7;;
64022;SDS011;50264;52.088;5.296;2023-02-28T07:31:46;5.5;;;4.7;;
64022;SDS011;50264;52.088;5.296;2023-02-28T07:33:22;6.3;;;5.2;;
64022;SDS011;50264;52.088;5.296;2023-02-28T07:34:58;7.9;;;5.11;;
64022;SDS011;50264;52.088;5.296;2023-02-28T07:38:11;6.0;;;5.3;;
64022;SDS011;50264;52.088;5.296;2023-02-28T07:39:47;6.1;;;5.2;;
64022;SDS011;50264;52.088;5.296;2023-02-28T07:41:23;6.5;;;5.11;;
64022;SDS011;50264;52.088;5.296;2023-02-28T07:42:59;6.6;;;5.4;;
64022;SDS011;50264;52.088;5.296;2023-02-28T07:47:51;6.8;;;5.7;;
64022;SDS011;50264;52.088;5.296;2023-02-28T07:49:29;6.6;;;5.6;;
64022;SDS011;50264;52.088;5.296;2023-02-28T07:52:41;10.7;;;5.9;;
64022;SDS011;50264;52.088;5.296;2023-02-28T07:54:18;6.1;;;5.2;;
64022;SDS011;50264;52.088;5.296;2023-02-28T07:55:55;7.7;;;6.4;;
64022;SDS011;50264;52.088;5.296;2023-02-28T07:59:07;7.1;;;6.4;;
64022;SDS011;50264;52.088;5.296;2023-02-28T08:00:43;8.6;;;5.7;;
64022;SDS011;50264;52.088;5.296;2023-02-28T08:02:20;6.2;;;5.2;;
64022;SDS011;50264;52.088;5.296;2023-02-28T08:03:56;5.9;;;5.3;;
64022;SDS011;50264;52.088;5.296;2023-02-28T08:07:08;6.6;;;5.6;;
64022;SDS011;50264;52.088;5.296;2023-02-28T08:08:44;7.6;;;6.1;;
64022;SDS011;50264;52.088;5.296;2023-02-28T08:10:20;7.6;;;5.6;;
64022;SDS011;50264;52.088;5.296;2023-02-28T08:13:33;7.3;;;5.5;;
64022;SDS011;50264;52.088;5.296;2023-02-28T08:15:09;8.9;;;5.3;;
64022;SDS011;50264;52.088;5.296;2023-02-28T08:16:46;9.31;;;6.3;;
64022;SDS011;50264;52.088;5.296;2023-02-28T08:19:59;5.5;;;4.91;;
64022;SDS011;50264;52.088;5.296;2023-02-28T08:21:36;6.9;;;5.3;;
64022;SDS011;50264;52.088;5.296;2023-02-28T08:23:12;9.6;;;5.9;;
64022;SDS011;50264;52.088;5.296;2023-02-28T08:24:49;5.7;;;4.61;;
64022;SDS011;50264;52.088;5.296;2023-02-28T08:28:01;6.0;;;5.3;;
64022;SDS011;50264;52.088;5.296;2023-02-28T08:29:38;10.9;;;5.3;;
64022;SDS011;50264;52.088;5.296;2023-02-28T08:31:15;5.0;;;4.61;;
64022;SDS011;50264;52.088;5.296;2023-02-28T08:34:29;10.1;;;5.11;;
64022;SDS011;50264;52.088;5.296;2023-02-28T08:36:05;7.7;;;4.2;;
64022;SDS011;50264;52.088;5.296;2023-02-28T08:37:43;7.2;;;3.7;;
64022;SDS011;50264;52.088;5.296;2023-02-28T08:40:56;4.5;;;3.7;;
64022;SDS011;50264;52.088;5.296;2023-02-28T08:42:34;7.1;;;3.8;;
64022;SDS011;50264;52.088;5.296;2023-02-28T08:44:11;4.91;;;3.9;;
64022;SDS011;50264;52.088;5.296;2023-02-28T08:45:50;8.31;;;4.1;;
64022;SDS011;50264;52.088;5.296;2023-02-28T08:49:03;5.2;;;3.9;;
64022;SDS011;50264;52.088;5.296;2023-02-28T08:50:39;6.0;;;3.9;;
64022;SDS011;50264;52.088;5.296;2023-02-28T08:52:15;5.3;;;4.0;;
64022;SDS011;50264;52.088;5.296;2023-02-28T08:55:30;5.7;;;4.2;;
64022;SDS011;50264;52.088;5.296;2023-02-28T08:57:06;4.61;;;4.1;;
64022;SDS011;50264;52.088;5.296;2023-02-28T08:58:42;6.8;;;4.3;;
64022;SDS011;50264;52.088;5.296;2023-02-28T09:00:21;5.4;;;4.3;;
64022;SDS011;50264;52.088;5.296;2023-02-28T09:03:33;5.3;;;3.6;;
64022;SDS011;50264;52.088;5.296;2023-02-28T09:05:10;5.9;;;4.2;;
64022;SDS011;50264;52.088;5.296;2023-02-28T09:06:46;6.4;;;4.3;;
64022;SDS011;50264;52.088;5.296;2023-02-28T09:09:59;6.2;;;4.0;;
64022;SDS011;50264;52.088;5.296;2023-02-28T09:11:35;4.0;;;3.6;;
64022;SDS011;50264;52.088;5.296;2023-02-28T09:13:12;5.8;;;4.0;;
64022;SDS011;50264;52.088;5.296;2023-02-28T09:16:24;5.5;;;3.8;;
64022;SDS011;50264;52.088;5.296;2023-02-28T09:18:01;6.2;;;3.6;;
64022;SDS011;50264;52.088;5.296;2023-02-28T09:19:37;6.6;;;3.9;;
64022;SDS011;50264;52.088;5.296;2023-02-28T09:22:52;4.7;;;4.2;;
64022;SDS011;50264;52.088;5.296;2023-02-28T09:24:28;4.2;;;3.8;;
64022;SDS011;50264;52.088;5.296;2023-02-28T09:26:04;7.3;;;3.6;;
64022;SDS011;50264;52.088;5.296;2023-02-28T09:27:41;6.4;;;4.0;;
64022;SDS011;50264;52.088;5.296;2023-02-28T09:30:54;4.61;;;3.9;;
64022;SDS011;50264;52.088;5.296;2023-02-28T09:32:31;3.9;;;3.1;;
64022;SDS011;50264;52.088;5.296;2023-02-28T09:34:07;8.1;;;3.6;;
64022;SDS011;50264;52.088;5.296;2023-02-28T09:37:19;4.3;;;3.4;;
64022;SDS011;50264;52.088;5.296;2023-02-28T09:38:55;4.7;;;3.1;;
64022;SDS011;50264;52.088;5.296;2023-02-28T09:40:32;7.3;;;3.2;;
64022;SDS011;50264;52.088;5.296;2023-02-28T09:42:17;5.5;;;3.6;;
64022;SDS011;50264;52.088;5.296;2023-02-28T09:45:50;3.1;;;2.7;;
64022;SDS011;50264;52.088;5.296;2023-02-28T09:47:31;3.2;;;2.5;;
64022;SDS011;50264;52.088;5.296;2023-02-28T09:49:12;5.11;;;2.7;;
64022;SDS011;50264;52.088;5.296;2023-02-28T09:50:52;3.4;;;2.4;;
64022;SDS011;50264;52.088;5.296;2023-02-28T09:54:14;3.1;;;2.5;;
64022;SDS011;50264;52.088;5.296;2023-02-28T09:55:53;3.2;;;2.31;;
64022;SDS011;50264;52.088;5.296;2023-02-28T09:57:35;3.3;;;2.6;;
64022;SDS011;50264;52.088;5.296;2023-02-28T09:59:18;4.0;;;2.0;;
64022;SDS011;50264;52.088;5.296;2023-02-28T10:01:19;1.7;;;1.6;;
64022;SDS011;50264;52.088;5.296;2023-02-28T10:03:12;1.8;;;1.6;;
64022;SDS011;50264;52.088;5.296;2023-02-28T10:06:44;2.7;;;1.9;;
64022;SDS011;50264;52.088;5.296;2023-02-28T10:08:25;3.6;;;1.9;;
64022;SDS011;50264;52.088;5.296;2023-02-28T10:10:13;1.9;;;1.7;;
64022;SDS011;50264;52.088;5.296;2023-02-28T10:11:57;3.0;;;1.7;;
64022;SDS011;50264;52.088;5.296;2023-02-28T10:13:42;2.6;;;1.9;;
64022;SDS011;50264;52.088;5.296;2023-02-28T10:17:08;6.6;;;2.1;;
64022;SDS011;50264;52.088;5.296;2023-02-28T10:18:50;2.0;;;1.8;;
64022;SDS011;50264;52.088;5.296;2023-02-28T10:20:35;2.0;;;1.8;;
64022;SDS011;50264;52.088;5.296;2023-02-28T10:22:14;3.6;;;1.4;;
64022;SDS011;50264;52.088;5.296;2023-02-28T10:25:54;2.31;;;1.8;;
64022;SDS011;50264;52.088;5.296;2023-02-28T10:27:34;2.1;;;1.8;;
64022;SDS011;50264;52.088;5.296;2023-02-28T10:29:10;4.2;;;1.9;;
64022;SDS011;50264;52.088;5.296;2023-02-28T10:30:47;2.31;;;1.9;;
64022;SDS011;50264;52.088;5.296;2023-02-28T10:32:26;2.8;;;1.9;;
64022;SDS011;50264;52.088;5.296;2023-02-28T10:35:47;2.31;;;1.5;;
64022;SDS011;50264;52.088;5.296;2023-02-28T10:37:24;2.6;;;1.9;;
64022;SDS011;50264;52.088;5.296;2023-02-28T10:39:01;4.41;;;1.8;;
64022;SDS011;50264;52.088;5.296;2023-02-28T10:41:12;2.0;;;1.8;;
64022;SDS011;50264;52.088;5.296;2023-02-28T10:42:54;2.6;;;1.8;;
64022;SDS011;50264;52.088;5.296;2023-02-28T10:46:11;2.7;;;1.9;;
64022;SDS011;50264;52.088;5.296;2023-02-28T10:47:52;25.2;;;15.3;;
64022;SDS011;50264;52.088;5.296;2023-02-28T10:49:30;5.2;;;4.1;;
64022;SDS011;50264;52.088;5.296;2023-02-28T10:52:45;2.31;;;1.8;;
64022;SDS011;50264;52.088;5.296;2023-02-28T10:54:22;2.9;;;2.31;;
64022;SDS011;50264;52.088;5.296;2023-02-28T10:56:04;1.8;;;1.7;;
64022;SDS011;50264;52.088;5.296;2023-02-28T10:57:49;2.4;;;1.9;;
64022;SDS011;50264;52.088;5.296;2023-02-28T11:01:10;5.0;;;2.0;;
64022;SDS011;50264;52.088;5.296;2023-02-28T11:02:49;8.2;;;1.9;;
64022;SDS011;50264;52.088;5.296;2023-02-28T11:04:34;1.5;;;1.4;;
64022;SDS011;50264;52.088;5.296;2023-02-28T11:06:14;3.3;;;1.8;;
64022;SDS011;50264;52.088;5.296;2023-02-28T11:09:35;2.6;;;1.9;;
64022;SDS011;50264;52.088;5.296;2023-02-28T11:11:14;2.0;;;1.9;;
64022;SDS011;50264;52.088;5.296;2023-02-28T11:12:53;3.4;;;1.9;;
64022;SDS011;50264;52.088;5.296;2023-02-28T11:14:31;3.1;;;1.8;;
64022;SDS011;50264;52.088;5.296;2023-02-28T11:16:30;2.9;;;2.0;;
64022;SDS011;50264;52.088;5.296;2023-02-28T11:19:59;5.2;;;1.8;;
64022;SDS011;50264;52.088;5.296;2023-02-28T11:21:39;3.6;;;1.9;;
64022;SDS011;50264;52.088;5.296;2023-02-28T11:23:24;2.21;;;1.7;;
64022;SDS011;50264;52.088;5.296;2023-02-28T11:25:06;3.7;;;2.1;;
64022;SDS011;50264;52.088;5.296;2023-02-28T11:28:26;2.7;;;1.7;;
64022;SDS011;50264;52.088;5.296;2023-02-28T11:30:12;2.7;;;1.9;;
64022;SDS011;50264;52.088;5.296;2023-02-28T11:32:01;2.5;;;1.6;;
64022;SDS011;50264;52.088;5.296;2023-02-28T11:33:49;3.1;;;1.8;;
64022;SDS011;50264;52.088;5.296;2023-02-28T11:35:28;2.8;;;1.9;;
64022;SDS011;50264;52.088;5.296;2023-02-28T11:38:51;4.5;;;1.8;;
64022;SDS011;50264;52.088;5.296;2023-02-28T11:40:31;2.5;;;1.9;;
64022;SDS011;50264;52.088;5.296;2023-02-28T11:42:23;3.1;;;1.6;;
64022;SDS011;50264;52.088;5.296;2023-02-28T11:45:17;6.2;;;1.8;;
64022;SDS011;50264;52.088;5.296;2023-02-28T11:47:15;1.8;;;1.7;;
64022;SDS011;50264;52.088;5.296;2023-02-28T11:49:02;2.1;;;1.6;;
64022;SDS011;50264;52.088;5.296;2023-02-28T11:50:55;2.8;;;1.8;;
64022;SDS011;50264;52.088;5.296;2023-02-28T11:52:43;6.0;;;2.21;;
64022;SDS011;50264;52.088;5.296;2023-02-28T11:54:27;2.6;;;1.6;;
64022;SDS011;50264;52.088;5.296;2023-02-28T11:56:29;2.8;;;1.7;;
64022;SDS011;50264;52.088;5.296;2023-02-28T12:00:31;3.1;;;2.0;;
64022;SDS011;50264;52.088;5.296;2023-02-28T12:04:04;2.31;;;1.5;;
64022;SDS011;50264;52.088;5.296;2023-02-28T12:05:58;3.6;;;1.6;;
64022;SDS011;50264;52.088;5.296;2023-02-28T12:07:56;3.1;;;1.9;;
64022;SDS011;50264;52.088;5.296;2023-02-28T12:09:47;3.2;;;1.7;;
64022;SDS011;50264;52.088;5.296;2023-02-28T12:11:39;2.5;;;1.8;;
64022;SDS011;50264;52.088;5.296;2023-02-28T12:13:28;2.5;;;1.8;;
64022;SDS011;50264;52.088;5.296;2023-02-28T12:15:17;6.2;;;1.9;;
64022;SDS011;50264;52.088;5.296;2023-02-28T12:18:25;2.1;;;1.9;;
64022;SDS011;50264;52.088;5.296;2023-02-28T12:20:28;2.21;;;1.7;;
64022;SDS011;50264;52.088;5.296;2023-02-28T12:22:15;5.11;;;1.7;;
64022;SDS011;50264;52.088;5.296;2023-02-28T12:24:08;1.8;;;1.6;;
64022;SDS011;50264;52.088;5.296;2023-02-28T12:26:27;2.0;;;1.8;;
64022;SDS011;50264;52.088;5.296;2023-02-28T12:28:13;5.5;;;1.9;;
64022;SDS011;50264;52.088;5.296;2023-02-28T12:29:54;1.6;;;1.5;;
64022;SDS011;50264;52.088;5.296;2023-02-28T12:33:15;2.9;;;1.7;;
64022;SDS011;50264;52.088;5.296;2023-02-28T12:34:57;2.6;;;1.9;;
64022;SDS011;50264;52.088;5.296;2023-02-28T12:36:40;6.2;;;1.8;;
64022;SDS011;50264;52.088;5.296;2023-02-28T12:38:19;3.5;;;1.5;;
64022;SDS011;50264;52.088;5.296;2023-02-28T12:40:01;2.1;;;1.8;;
64022;SDS011;50264;52.088;5.296;2023-02-28T12:43:22;2.6;;;1.7;;
64022;SDS011;50264;52.088;5.296;2023-02-28T12:46:51;1.9;;;1.4;;
64022;SDS011;50264;52.088;5.296;2023-02-28T12:48:36;3.7;;;1.9;;
64022;SDS011;50264;52.088;5.296;2023-02-28T12:51:56;3.3;;;1.6;;
64022;SDS011;50264;52.088;5.296;2023-02-28T12:53:36;2.6;;;1.8;;
64022;SDS011;50264;52.088;5.296;2023-02-28T12:55:27;3.6;;;2.7;;
64022;SDS011;50264;52.088;5.296;2023-02-28T12:57:15;2.4;;;1.8;;
64022;SDS011;50264;52.088;5.296;2023-02-28T12:59:01;2.7;;;1.8;;
64022;SDS011;50264;52.088;5.296;2023-02-28T13:03:41;2.0;;;1.7;;
64022;SDS011;50264;52.088;5.296;2023-02-28T13:05:32;3.4;;;1.9;;
64022;SDS011;50264;52.088;5.296;2023-02-28T13:08:33;2.8;;;2.1;;
64022;SDS011;50264;52.088;5.296;2023-02-28T13:10:39;3.6;;;2.1;;
64022;SDS011;50264;52.088;5.296;2023-02-28T13:12:20;3.1;;;1.9;;
64022;SDS011;50264;52.088;5.296;2023-02-28T13:13:58;1.9;;;1.7;;
64022;SDS011;50264;52.088;5.296;2023-02-28T13:15:37;3.0;;;2.1;;
64022;SDS011;50264;52.088;5.296;2023-02-28T13:19:07;2.9;;;2.0;;